sensor_id;sensor_type;location;lat;lon;timestamp;P1;durP1;ratioP1;P2;durP2;ratioP2
35330;SDS011;21441;52.190;20.910;2023-04-24T00:01:35;15.30;;;8.35;;
35330;SDS011;21441;52.190;20.910;2023-04-24T00:04:06;11.17;;;8.70;;
35330;SDS011;21441;52.190;20.910;2023-04-24T00:06:36;11.43;;;8.18;;
35330;SDS011;21441;52.190;20.910;2023-04-24T00:09:04;10.57;;;8.40;;
35330;SDS011;21441;52.190;20.910;2023-04-24T00:11:31;10.27;;;8.20;;
35330;SDS011;21441;52.190;20.910;2023-04-24T00:13:58;12.13;;;8.90;;
35330;SDS011;21441;52.190;20.910;2023-04-24T00:16:25;12.55;;;8.68;;
35330;SDS011;21441;52.190;20.910;2023-04-24T00:18:53;13.07;;;9.30;;
35330;SDS011;21441;52.190;20.910;2023-04-24T00:21:21;13.27;;;9.38;;
35330;SDS011;21441;52.190;20.910;2023-04-24T00:23:51;14.18;;;9.00;;
35330;SDS011;21441;52.190;20.910;2023-04-24T00:26:18;11.88;;;9.63;;
35330;SDS011;21441;52.190;20.910;2023-04-24T00:28:46;11.90;;;8.95;;
35330;SDS011;21441;52.190;20.910;2023-04-24T00:31:13;12.23;;;8.57;;
35330;SDS011;21441;52.190;20.910;2023-04-24T00:33:40;17.00;;;9.43;;
35330;SDS011;21441;52.190;20.910;2023-04-24T00:36:07;12.30;;;8.88;;
35330;SDS011;21441;52.190;20.910;2023-04-24T00:38:36;14.63;;;8.90;;
35330;SDS011;21441;52.190;20.910;2023-04-24T00:41:03;12.45;;;9.70;;
35330;SDS011;21441;52.190;20.910;2023-04-24T00:43:32;10.93;;;8.73;;
35330;SDS011;21441;52.190;20.910;2023-04-24T00:45:59;11.73;;;8.70;;
35330;SDS011;21441;52.190;20.910;2023-04-24T00:48:27;11.05;;;8.70;;
35330;SDS011;21441;52.190;20.910;2023-04-24T00:50:54;13.20;;;9.43;;
35330;SDS011;21441;52.190;20.910;2023-04-24T00:53:23;11.60;;;9.90;;
35330;SDS011;21441;52.190;20.910;2023-04-24T00:55:51;15.85;;;9.88;;
35330;SDS011;21441;52.190;20.910;2023-04-24T00:58:19;10.85;;;8.80;;
35330;SDS011;21441;52.190;20.910;2023-04-24T01:00:46;13.07;;;8.82;;
35330;SDS011;21441;52.190;20.910;2023-04-24T01:03:16;12.48;;;8.68;;
35330;SDS011;21441;52.190;20.910;2023-04-24T01:05:44;14.98;;;10.00;;
35330;SDS011;21441;52.190;20.910;2023-04-24T01:08:11;16.80;;;10.05;;
35330;SDS011;21441;52.190;20.910;2023-04-24T01:10:40;12.95;;;9.32;;
35330;SDS011;21441;52.190;20.910;2023-04-24T01:13:09;10.55;;;9.38;;
35330;SDS011;21441;52.190;20.910;2023-04-24T01:15:36;13.57;;;9.63;;
35330;SDS011;21441;52.190;20.910;2023-04-24T01:18:03;12.07;;;8.23;;
35330;SDS011;21441;52.190;20.910;2023-04-24T01:20:31;17.05;;;9.70;;
35330;SDS011;21441;52.190;20.910;2023-04-24T01:23:01;11.50;;;8.70;;
35330;SDS011;21441;52.190;20.910;2023-04-24T01:25:29;16.02;;;9.43;;
35330;SDS011;21441;52.190;20.910;2023-04-24T01:27:57;13.82;;;9.48;;
35330;SDS011;21441;52.190;20.910;2023-04-24T01:30:24;12.13;;;9.27;;
35330;SDS011;21441;52.190;20.910;2023-04-24T01:32:52;12.65;;;9.43;;
35330;SDS011;21441;52.190;20.910;2023-04-24T01:35:19;15.55;;;9.50;;
35330;SDS011;21441;52.190;20.910;2023-04-24T01:37:47;10.18;;;8.60;;
35330;SDS011;21441;52.190;20.910;2023-04-24T01:40:15;12.55;;;9.27;;
35330;SDS011;21441;52.190;20.910;2023-04-24T01:42:42;11.80;;;8.60;;
35330;SDS011;21441;52.190;20.910;2023-04-24T01:45:10;14.40;;;9.73;;
35330;SDS011;21441;52.190;20.910;2023-04-24T01:47:38;11.10;;;8.75;;
35330;SDS011;21441;52.190;20.910;2023-04-24T01:50:06;12.60;;;9.88;;
35330;SDS011;21441;52.190;20.910;2023-04-24T01:52:34;11.85;;;8.50;;
35330;SDS011;21441;52.190;20.910;2023-04-24T01:55:01;11.93;;;9.73;;
35330;SDS011;21441;52.190;20.910;2023-04-24T01:57:31;12.98;;;9.38;;
35330;SDS011;21441;52.190;20.910;2023-04-24T01:59:59;10.95;;;9.52;;
35330;SDS011;21441;52.190;20.910;2023-04-24T02:02:27;13.52;;;9.15;;
35330;SDS011;21441;52.190;20.910;2023-04-24T02:04:54;14.32;;;10.30;;
35330;SDS011;21441;52.190;20.910;2023-04-24T02:07:21;14.93;;;10.32;;
35330;SDS011;21441;52.190;20.910;2023-04-24T02:09:48;11.20;;;9.40;;
35330;SDS011;21441;52.190;20.910;2023-04-24T02:12:16;12.00;;;9.10;;
35330;SDS011;21441;52.190;20.910;2023-04-24T02:14:45;17.23;;;9.98;;
35330;SDS011;21441;52.190;20.910;2023-04-24T02:17:12;15.20;;;10.13;;
35330;SDS011;21441;52.190;20.910;2023-04-24T02:19:40;12.52;;;10.32;;
35330;SDS011;21441;52.190;20.910;2023-04-24T02:22:08;13.85;;;9.35;;
35330;SDS011;21441;52.190;20.910;2023-04-24T02:24:35;14.50;;;9.80;;
35330;SDS011;21441;52.190;20.910;2023-04-24T02:27:03;16.40;;;9.82;;
35330;SDS011;21441;52.190;20.910;2023-04-24T02:29:30;13.43;;;9.63;;
35330;SDS011;21441;52.190;20.910;2023-04-24T02:31:59;13.52;;;10.07;;
35330;SDS011;21441;52.190;20.910;2023-04-24T02:34:26;15.15;;;10.80;;
35330;SDS011;21441;52.190;20.910;2023-04-24T02:36:53;14.23;;;10.35;;
35330;SDS011;21441;52.190;20.910;2023-04-24T02:39:20;17.48;;;10.13;;
35330;SDS011;21441;52.190;20.910;2023-04-24T02:41:47;16.67;;;9.98;;
35330;SDS011;21441;52.190;20.910;2023-04-24T02:44:14;13.90;;;9.68;;
35330;SDS011;21441;52.190;20.910;2023-04-24T02:46:42;12.80;;;10.70;;
35330;SDS011;21441;52.190;20.910;2023-04-24T02:49:11;12.13;;;9.10;;
35330;SDS011;21441;52.190;20.910;2023-04-24T02:51:38;19.48;;;10.07;;
35330;SDS011;21441;52.190;20.910;2023-04-24T02:54:06;16.65;;;10.00;;
35330;SDS011;21441;52.190;20.910;2023-04-24T02:56:35;14.80;;;10.40;;
35330;SDS011;21441;52.190;20.910;2023-04-24T02:59:02;17.42;;;10.80;;
35330;SDS011;21441;52.190;20.910;2023-04-24T03:01:29;12.30;;;9.85;;
35330;SDS011;21441;52.190;20.910;2023-04-24T03:03:57;15.77;;;10.57;;
35330;SDS011;21441;52.190;20.910;2023-04-24T03:06:26;17.00;;;10.52;;
35330;SDS011;21441;52.190;20.910;2023-04-24T03:08:53;16.35;;;10.57;;
35330;SDS011;21441;52.190;20.910;2023-04-24T03:11:21;15.32;;;9.98;;
35330;SDS011;21441;52.190;20.910;2023-04-24T03:13:48;14.73;;;10.13;;
35330;SDS011;21441;52.190;20.910;2023-04-24T03:16:15;12.38;;;9.52;;
35330;SDS011;21441;52.190;20.910;2023-04-24T03:18:42;11.50;;;9.00;;
35330;SDS011;21441;52.190;20.910;2023-04-24T03:21:09;15.10;;;9.70;;
35330;SDS011;21441;52.190;20.910;2023-04-24T03:23:38;13.05;;;9.32;;
35330;SDS011;21441;52.190;20.910;2023-04-24T03:26:05;17.15;;;9.63;;
35330;SDS011;21441;52.190;20.910;2023-04-24T03:28:32;14.90;;;9.48;;
35330;SDS011;21441;52.190;20.910;2023-04-24T03:30:59;13.52;;;9.65;;
35330;SDS011;21441;52.190;20.910;2023-04-24T03:33:26;11.52;;;9.45;;
35330;SDS011;21441;52.190;20.910;2023-04-24T03:35:53;16.00;;;10.35;;
35330;SDS011;21441;52.190;20.910;2023-04-24T03:38:20;12.27;;;9.43;;
35330;SDS011;21441;52.190;20.910;2023-04-24T03:40:49;16.80;;;9.57;;
35330;SDS011;21441;52.190;20.910;2023-04-24T03:43:16;12.25;;;9.50;;
35330;SDS011;21441;52.190;20.910;2023-04-24T03:45:43;14.45;;;9.93;;
35330;SDS011;21441;52.190;20.910;2023-04-24T03:48:10;15.63;;;9.80;;
35330;SDS011;21441;52.190;20.910;2023-04-24T03:50:37;12.20;;;9.52;;
35330;SDS011;21441;52.190;20.910;2023-04-24T03:53:04;13.43;;;10.00;;
35330;SDS011;21441;52.190;20.910;2023-04-24T03:55:32;13.35;;;9.75;;
35330;SDS011;21441;52.190;20.910;2023-04-24T03:58:00;17.75;;;10.43;;
35330;SDS011;21441;52.190;20.910;2023-04-24T04:00:27;15.57;;;9.88;;
35330;SDS011;21441;52.190;20.910;2023-04-24T04:02:58;12.50;;;8.88;;
35330;SDS011;21441;52.190;20.910;2023-04-24T04:05:25;11.90;;;9.80;;
35330;SDS011;21441;52.190;20.910;2023-04-24T04:07:52;14.10;;;9.88;;
35330;SDS011;21441;52.190;20.910;2023-04-24T04:10:20;14.88;;;10.35;;
35330;SDS011;21441;52.190;20.910;2023-04-24T04:12:47;14.90;;;9.07;;
35330;SDS011;21441;52.190;20.910;2023-04-24T04:15:16;13.40;;;10.35;;
35330;SDS011;21441;52.190;20.910;2023-04-24T04:17:43;12.02;;;9.32;;
35330;SDS011;21441;52.190;20.910;2023-04-24T04:20:11;12.45;;;9.18;;
35330;SDS011;21441;52.190;20.910;2023-04-24T04:22:38;15.55;;;10.02;;
35330;SDS011;21441;52.190;20.910;2023-04-24T04:25:06;13.25;;;10.52;;
35330;SDS011;21441;52.190;20.910;2023-04-24T04:27:33;12.10;;;9.15;;
35330;SDS011;21441;52.190;20.910;2023-04-24T04:30:02;12.57;;;8.73;;
35330;SDS011;21441;52.190;20.910;2023-04-24T04:32:31;13.82;;;9.90;;
35330;SDS011;21441;52.190;20.910;2023-04-24T04:35:00;15.98;;;10.10;;
35330;SDS011;21441;52.190;20.910;2023-04-24T04:37:28;12.77;;;9.73;;
35330;SDS011;21441;52.190;20.910;2023-04-24T04:39:55;12.05;;;8.88;;
35330;SDS011;21441;52.190;20.910;2023-04-24T04:42:23;13.60;;;9.43;;
35330;SDS011;21441;52.190;20.910;2023-04-24T04:44:51;12.48;;;9.70;;
35330;SDS011;21441;52.190;20.910;2023-04-24T04:47:18;13.10;;;8.70;;
35330;SDS011;21441;52.190;20.910;2023-04-24T04:52:17;11.10;;;9.25;;
35330;SDS011;21441;52.190;20.910;2023-04-24T04:54:44;12.20;;;9.32;;
35330;SDS011;21441;52.190;20.910;2023-04-24T04:57:11;13.25;;;9.10;;
35330;SDS011;21441;52.190;20.910;2023-04-24T04:59:39;14.32;;;9.07;;
35330;SDS011;21441;52.190;20.910;2023-04-24T05:02:06;13.65;;;8.90;;
35330;SDS011;21441;52.190;20.910;2023-04-24T05:04:33;15.88;;;9.10;;
35330;SDS011;21441;52.190;20.910;2023-04-24T05:07:02;11.10;;;9.48;;
35330;SDS011;21441;52.190;20.910;2023-04-24T05:09:29;14.88;;;9.43;;
35330;SDS011;21441;52.190;20.910;2023-04-24T05:11:56;13.52;;;10.07;;
35330;SDS011;21441;52.190;20.910;2023-04-24T05:14:23;15.95;;;10.02;;
35330;SDS011;21441;52.190;20.910;2023-04-24T05:16:51;12.35;;;9.73;;
35330;SDS011;21441;52.190;20.910;2023-04-24T05:19:18;13.13;;;10.02;;
35330;SDS011;21441;52.190;20.910;2023-04-24T05:21:45;13.20;;;9.73;;
35330;SDS011;21441;52.190;20.910;2023-04-24T05:24:13;13.57;;;10.35;;
35330;SDS011;21441;52.190;20.910;2023-04-24T05:26:40;16.17;;;9.50;;
35330;SDS011;21441;52.190;20.910;2023-04-24T05:29:08;16.20;;;9.85;;
35330;SDS011;21441;52.190;20.910;2023-04-24T05:31:35;13.32;;;9.00;;
35330;SDS011;21441;52.190;20.910;2023-04-24T05:34:02;11.02;;;9.07;;
35330;SDS011;21441;52.190;20.910;2023-04-24T05:36:30;13.70;;;8.93;;
35330;SDS011;21441;52.190;20.910;2023-04-24T05:38:58;12.80;;;9.65;;
35330;SDS011;21441;52.190;20.910;2023-04-24T05:41:26;13.98;;;8.82;;
35330;SDS011;21441;52.190;20.910;2023-04-24T05:43:53;13.90;;;9.00;;
35330;SDS011;21441;52.190;20.910;2023-04-24T05:46:20;15.00;;;10.27;;
35330;SDS011;21441;52.190;20.910;2023-04-24T05:48:48;17.73;;;10.27;;
35330;SDS011;21441;52.190;20.910;2023-04-24T05:51:15;15.82;;;9.93;;
35330;SDS011;21441;52.190;20.910;2023-04-24T05:53:42;14.45;;;10.27;;
35330;SDS011;21441;52.190;20.910;2023-04-24T05:56:09;16.33;;;9.43;;
35330;SDS011;21441;52.190;20.910;2023-04-24T05:58:38;15.70;;;10.27;;
35330;SDS011;21441;52.190;20.910;2023-04-24T06:01:05;13.95;;;10.07;;
35330;SDS011;21441;52.190;20.910;2023-04-24T06:03:32;13.93;;;9.52;;
35330;SDS011;21441;52.190;20.910;2023-04-24T06:05:59;13.63;;;9.02;;
35330;SDS011;21441;52.190;20.910;2023-04-24T06:08:27;15.65;;;9.23;;
35330;SDS011;21441;52.190;20.910;2023-04-24T06:10:54;15.55;;;9.40;;
35330;SDS011;21441;52.190;20.910;2023-04-24T06:13:21;12.63;;;9.23;;
35330;SDS011;21441;52.190;20.910;2023-04-24T06:15:49;16.15;;;8.80;;
35330;SDS011;21441;52.190;20.910;2023-04-24T06:18:17;19.23;;;9.57;;
35330;SDS011;21441;52.190;20.910;2023-04-24T06:20:44;13.75;;;9.20;;
35330;SDS011;21441;52.190;20.910;2023-04-24T06:23:11;17.65;;;9.82;;
35330;SDS011;21441;52.190;20.910;2023-04-24T06:25:38;12.63;;;9.05;;
35330;SDS011;21441;52.190;20.910;2023-04-24T06:28:06;18.48;;;9.25;;
35330;SDS011;21441;52.190;20.910;2023-04-24T06:30:33;14.00;;;8.77;;
35330;SDS011;21441;52.190;20.910;2023-04-24T06:33:02;16.45;;;9.30;;
35330;SDS011;21441;52.190;20.910;2023-04-24T06:35:29;14.45;;;9.07;;
35330;SDS011;21441;52.190;20.910;2023-04-24T06:37:56;15.88;;;8.82;;
35330;SDS011;21441;52.190;20.910;2023-04-24T06:40:23;14.60;;;8.50;;
35330;SDS011;21441;52.190;20.910;2023-04-24T06:42:51;14.23;;;8.85;;
35330;SDS011;21441;52.190;20.910;2023-04-24T06:45:18;14.88;;;8.90;;
35330;SDS011;21441;52.190;20.910;2023-04-24T06:47:46;21.33;;;9.10;;
35330;SDS011;21441;52.190;20.910;2023-04-24T06:50:14;11.68;;;8.38;;
35330;SDS011;21441;52.190;20.910;2023-04-24T06:52:42;12.98;;;8.85;;
35330;SDS011;21441;52.190;20.910;2023-04-24T06:55:09;17.58;;;8.65;;
35330;SDS011;21441;52.190;20.910;2023-04-24T06:57:37;13.60;;;8.88;;
35330;SDS011;21441;52.190;20.910;2023-04-24T07:00:04;15.13;;;8.55;;
35330;SDS011;21441;52.190;20.910;2023-04-24T07:02:32;12.00;;;7.68;;
35330;SDS011;21441;52.190;20.910;2023-04-24T07:04:59;11.60;;;8.43;;
35330;SDS011;21441;52.190;20.910;2023-04-24T07:07:28;22.35;;;10.85;;
35330;SDS011;21441;52.190;20.910;2023-04-24T07:09:55;10.02;;;8.52;;
35330;SDS011;21441;52.190;20.910;2023-04-24T07:12:23;13.52;;;8.43;;
35330;SDS011;21441;52.190;20.910;2023-04-24T07:14:50;14.00;;;11.10;;
35330;SDS011;21441;52.190;20.910;2023-04-24T07:17:17;15.30;;;8.48;;
35330;SDS011;21441;52.190;20.910;2023-04-24T07:19:44;11.40;;;8.48;;
35330;SDS011;21441;52.190;20.910;2023-04-24T07:22:12;12.45;;;8.45;;
35330;SDS011;21441;52.190;20.910;2023-04-24T07:24:43;19.38;;;9.18;;
35330;SDS011;21441;52.190;20.910;2023-04-24T07:27:11;12.35;;;7.68;;
35330;SDS011;21441;52.190;20.910;2023-04-24T07:29:40;14.80;;;8.82;;
35330;SDS011;21441;52.190;20.910;2023-04-24T07:32:07;11.45;;;8.82;;
35330;SDS011;21441;52.190;20.910;2023-04-24T07:34:34;12.82;;;8.13;;
35330;SDS011;21441;52.190;20.910;2023-04-24T07:37:02;17.05;;;9.25;;
35330;SDS011;21441;52.190;20.910;2023-04-24T07:39:29;13.90;;;8.50;;
35330;SDS011;21441;52.190;20.910;2023-04-24T07:41:58;14.65;;;9.20;;
35330;SDS011;21441;52.190;20.910;2023-04-24T07:44:27;14.00;;;9.07;;
35330;SDS011;21441;52.190;20.910;2023-04-24T07:46:55;14.35;;;8.82;;
35330;SDS011;21441;52.190;20.910;2023-04-24T07:49:22;12.18;;;8.82;;
35330;SDS011;21441;52.190;20.910;2023-04-24T07:51:50;11.95;;;8.02;;
35330;SDS011;21441;52.190;20.910;2023-04-24T07:54:16;14.30;;;9.13;;
35330;SDS011;21441;52.190;20.910;2023-04-24T07:56:44;13.25;;;9.50;;
35330;SDS011;21441;52.190;20.910;2023-04-24T07:59:12;18.13;;;8.85;;
35330;SDS011;21441;52.190;20.910;2023-04-24T08:01:40;12.20;;;9.45;;
35330;SDS011;21441;52.190;20.910;2023-04-24T08:04:07;14.10;;;8.85;;
35330;SDS011;21441;52.190;20.910;2023-04-24T08:06:34;14.75;;;9.77;;
35330;SDS011;21441;52.190;20.910;2023-04-24T08:09:01;23.27;;;9.18;;
35330;SDS011;21441;52.190;20.910;2023-04-24T08:11:29;12.85;;;8.68;;
35330;SDS011;21441;52.190;20.910;2023-04-24T08:13:57;16.27;;;10.05;;
35330;SDS011;21441;52.190;20.910;2023-04-24T08:16:26;15.80;;;9.40;;
35330;SDS011;21441;52.190;20.910;2023-04-24T08:18:53;11.27;;;9.02;;
35330;SDS011;21441;52.190;20.910;2023-04-24T08:21:20;10.48;;;8.30;;
35330;SDS011;21441;52.190;20.910;2023-04-24T08:23:47;12.55;;;8.95;;
35330;SDS011;21441;52.190;20.910;2023-04-24T08:26:14;16.33;;;9.63;;
35330;SDS011;21441;52.190;20.910;2023-04-24T08:28:41;14.82;;;9.52;;
35330;SDS011;21441;52.190;20.910;2023-04-24T08:31:09;14.95;;;9.30;;
35330;SDS011;21441;52.190;20.910;2023-04-24T08:33:38;12.43;;;8.35;;
35330;SDS011;21441;52.190;20.910;2023-04-24T08:36:06;14.23;;;8.52;;
35330;SDS011;21441;52.190;20.910;2023-04-24T08:38:34;10.75;;;8.70;;
35330;SDS011;21441;52.190;20.910;2023-04-24T08:41:01;11.45;;;8.82;;
35330;SDS011;21441;52.190;20.910;2023-04-24T08:43:29;11.82;;;8.50;;
35330;SDS011;21441;52.190;20.910;2023-04-24T08:45:59;18.67;;;9.38;;
35330;SDS011;21441;52.190;20.910;2023-04-24T08:48:26;13.90;;;8.48;;
35330;SDS011;21441;52.190;20.910;2023-04-24T08:50:56;12.18;;;8.45;;
35330;SDS011;21441;52.190;20.910;2023-04-24T08:53:24;16.70;;;9.45;;
35330;SDS011;21441;52.190;20.910;2023-04-24T08:55:52;17.92;;;9.15;;
35330;SDS011;21441;52.190;20.910;2023-04-24T08:58:21;15.40;;;8.88;;
35330;SDS011;21441;52.190;20.910;2023-04-24T09:00:50;13.02;;;8.90;;
35330;SDS011;21441;52.190;20.910;2023-04-24T09:03:17;13.27;;;9.20;;
35330;SDS011;21441;52.190;20.910;2023-04-24T09:05:46;12.55;;;9.23;;
35330;SDS011;21441;52.190;20.910;2023-04-24T09:08:16;11.73;;;9.20;;
35330;SDS011;21441;52.190;20.910;2023-04-24T09:10:45;11.73;;;8.10;;
35330;SDS011;21441;52.190;20.910;2023-04-24T09:13:12;13.05;;;8.00;;
35330;SDS011;21441;52.190;20.910;2023-04-24T09:15:40;15.63;;;8.00;;
35330;SDS011;21441;52.190;20.910;2023-04-24T09:18:07;15.32;;;10.10;;
35330;SDS011;21441;52.190;20.910;2023-04-24T09:20:35;12.25;;;9.23;;
35330;SDS011;21441;52.190;20.910;2023-04-24T09:23:28;10.82;;;9.02;;
35330;SDS011;21441;52.190;20.910;2023-04-24T09:25:56;11.73;;;7.68;;
35330;SDS011;21441;52.190;20.910;2023-04-24T09:28:25;17.35;;;7.78;;
35330;SDS011;21441;52.190;20.910;2023-04-24T09:31:06;38.50;;;10.75;;
35330;SDS011;21441;52.190;20.910;2023-04-24T09:33:35;9.48;;;6.18;;
35330;SDS011;21441;52.190;20.910;2023-04-24T09:36:03;11.63;;;6.65;;
35330;SDS011;21441;52.190;20.910;2023-04-24T09:38:34;7.03;;;6.22;;
35330;SDS011;21441;52.190;20.910;2023-04-24T09:41:02;9.90;;;6.93;;
35330;SDS011;21441;52.190;20.910;2023-04-24T09:43:31;8.98;;;6.80;;
35330;SDS011;21441;52.190;20.910;2023-04-24T09:46:00;8.55;;;6.03;;
35330;SDS011;21441;52.190;20.910;2023-04-24T09:48:32;9.00;;;6.85;;
35330;SDS011;21441;52.190;20.910;2023-04-24T09:51:00;8.85;;;5.60;;
35330;SDS011;21441;52.190;20.910;2023-04-24T09:53:29;8.80;;;6.78;;
35330;SDS011;21441;52.190;20.910;2023-04-24T09:56:03;7.70;;;6.07;;
35330;SDS011;21441;52.190;20.910;2023-04-24T09:58:34;11.98;;;6.93;;
35330;SDS011;21441;52.190;20.910;2023-04-24T10:01:02;11.07;;;6.32;;
35330;SDS011;21441;52.190;20.910;2023-04-24T10:03:30;8.02;;;6.18;;
35330;SDS011;21441;52.190;20.910;2023-04-24T10:05:58;8.18;;;5.97;;
35330;SDS011;21441;52.190;20.910;2023-04-24T10:08:26;7.60;;;5.72;;
35330;SDS011;21441;52.190;20.910;2023-04-24T10:10:59;7.43;;;6.20;;
35330;SDS011;21441;52.190;20.910;2023-04-24T10:13:28;8.45;;;6.63;;
35330;SDS011;21441;52.190;20.910;2023-04-24T10:15:56;6.85;;;5.88;;
35330;SDS011;21441;52.190;20.910;2023-04-24T10:18:27;7.68;;;5.45;;
35330;SDS011;21441;52.190;20.910;2023-04-24T10:20:55;7.85;;;6.00;;
35330;SDS011;21441;52.190;20.910;2023-04-24T10:23:24;6.05;;;4.65;;
35330;SDS011;21441;52.190;20.910;2023-04-24T10:25:52;5.32;;;4.60;;
35330;SDS011;21441;52.190;20.910;2023-04-24T10:28:20;7.05;;;5.30;;
35330;SDS011;21441;52.190;20.910;2023-04-24T10:30:49;7.20;;;5.05;;
35330;SDS011;21441;52.190;20.910;2023-04-24T10:33:17;7.82;;;5.65;;
35330;SDS011;21441;52.190;20.910;2023-04-24T10:35:45;6.40;;;5.80;;
35330;SDS011;21441;52.190;20.910;2023-04-24T10:38:18;7.20;;;5.72;;
35330;SDS011;21441;52.190;20.910;2023-04-24T10:40:50;7.07;;;5.53;;
35330;SDS011;21441;52.190;20.910;2023-04-24T10:43:17;9.82;;;5.97;;
35330;SDS011;21441;52.190;20.910;2023-04-24T10:46:01;9.63;;;6.13;;
35330;SDS011;21441;52.190;20.910;2023-04-24T10:48:29;11.10;;;6.50;;
35330;SDS011;21441;52.190;20.910;2023-04-24T10:50:58;6.88;;;6.13;;
35330;SDS011;21441;52.190;20.910;2023-04-24T10:53:27;10.80;;;6.50;;
35330;SDS011;21441;52.190;20.910;2023-04-24T10:55:58;9.43;;;6.90;;
35330;SDS011;21441;52.190;20.910;2023-04-24T10:58:36;8.10;;;6.22;;
35330;SDS011;21441;52.190;20.910;2023-04-24T11:01:07;9.20;;;6.55;;
35330;SDS011;21441;52.190;20.910;2023-04-24T11:03:35;10.50;;;6.55;;
35330;SDS011;21441;52.190;20.910;2023-04-24T11:06:03;7.38;;;6.18;;
35330;SDS011;21441;52.190;20.910;2023-04-24T11:08:36;7.90;;;6.38;;
35330;SDS011;21441;52.190;20.910;2023-04-24T11:11:09;6.85;;;5.93;;
35330;SDS011;21441;52.190;20.910;2023-04-24T11:16:30;9.38;;;5.18;;
35330;SDS011;21441;52.190;20.910;2023-04-24T11:19:03;8.88;;;5.82;;
35330;SDS011;21441;52.190;20.910;2023-04-24T11:21:31;12.52;;;5.85;;
35330;SDS011;21441;52.190;20.910;2023-04-24T11:24:03;6.85;;;6.07;;
35330;SDS011;21441;52.190;20.910;2023-04-24T11:26:50;7.63;;;6.25;;
35330;SDS011;21441;52.190;20.910;2023-04-24T11:29:18;7.20;;;5.47;;
35330;SDS011;21441;52.190;20.910;2023-04-24T11:31:48;6.50;;;5.82;;
35330;SDS011;21441;52.190;20.910;2023-04-24T11:34:16;10.93;;;6.40;;
35330;SDS011;21441;52.190;20.910;2023-04-24T11:36:45;8.98;;;6.10;;
35330;SDS011;21441;52.190;20.910;2023-04-24T11:39:13;7.53;;;6.05;;
35330;SDS011;21441;52.190;20.910;2023-04-24T11:41:41;7.25;;;6.47;;
35330;SDS011;21441;52.190;20.910;2023-04-24T11:44:08;10.35;;;6.55;;
35330;SDS011;21441;52.190;20.910;2023-04-24T11:46:37;11.55;;;6.15;;
35330;SDS011;21441;52.190;20.910;2023-04-24T11:49:06;10.30;;;5.88;;
35330;SDS011;21441;52.190;20.910;2023-04-24T11:51:34;8.95;;;6.47;;
35330;SDS011;21441;52.190;20.910;2023-04-24T11:54:01;10.23;;;7.07;;
35330;SDS011;21441;52.190;20.910;2023-04-24T11:56:28;7.70;;;6.68;;
35330;SDS011;21441;52.190;20.910;2023-04-24T11:58:55;7.18;;;5.50;;
35330;SDS011;21441;52.190;20.910;2023-04-24T12:01:23;8.82;;;6.43;;
35330;SDS011;21441;52.190;20.910;2023-04-24T12:03:50;11.07;;;5.75;;
35330;SDS011;21441;52.190;20.910;2023-04-24T12:06:19;6.47;;;5.72;;
35330;SDS011;21441;52.190;20.910;2023-04-24T12:08:46;7.15;;;5.90;;
35330;SDS011;21441;52.190;20.910;2023-04-24T12:11:15;8.65;;;6.43;;
35330;SDS011;21441;52.190;20.910;2023-04-24T12:13:44;9.98;;;7.22;;
35330;SDS011;21441;52.190;20.910;2023-04-24T12:16:12;9.55;;;6.53;;
35330;SDS011;21441;52.190;20.910;2023-04-24T12:18:43;10.75;;;6.32;;
35330;SDS011;21441;52.190;20.910;2023-04-24T12:21:14;8.98;;;7.05;;
35330;SDS011;21441;52.190;20.910;2023-04-24T12:23:44;7.75;;;6.30;;
35330;SDS011;21441;52.190;20.910;2023-04-24T12:26:12;8.05;;;6.45;;
35330;SDS011;21441;52.190;20.910;2023-04-24T12:28:42;9.65;;;6.05;;
35330;SDS011;21441;52.190;20.910;2023-04-24T12:31:09;8.85;;;6.50;;
35330;SDS011;21441;52.190;20.910;2023-04-24T12:33:36;10.93;;;7.38;;
35330;SDS011;21441;52.190;20.910;2023-04-24T12:36:04;7.32;;;6.38;;
35330;SDS011;21441;52.190;20.910;2023-04-24T12:38:31;7.40;;;6.65;;
35330;SDS011;21441;52.190;20.910;2023-04-24T12:41:07;18.13;;;5.95;;
35330;SDS011;21441;52.190;20.910;2023-04-24T12:43:35;28.55;;;6.28;;
35330;SDS011;21441;52.190;20.910;2023-04-24T12:46:03;16.50;;;5.13;;
35330;SDS011;21441;52.190;20.910;2023-04-24T12:48:31;9.15;;;3.72;;
35330;SDS011;21441;52.190;20.910;2023-04-24T12:50:58;9.82;;;4.10;;
35330;SDS011;21441;52.190;20.910;2023-04-24T12:53:27;13.93;;;4.00;;
35330;SDS011;21441;52.190;20.910;2023-04-24T12:55:56;5.85;;;3.25;;
35330;SDS011;21441;52.190;20.910;2023-04-24T12:58:25;8.57;;;3.83;;
35330;SDS011;21441;52.190;20.910;2023-04-24T13:00:52;8.40;;;2.63;;
35330;SDS011;21441;52.190;20.910;2023-04-24T13:03:19;9.23;;;3.58;;
35330;SDS011;21441;52.190;20.910;2023-04-24T13:05:48;7.18;;;3.83;;
35330;SDS011;21441;52.190;20.910;2023-04-24T13:08:15;6.93;;;3.38;;
35330;SDS011;21441;52.190;20.910;2023-04-24T13:10:42;8.82;;;3.63;;
35330;SDS011;21441;52.190;20.910;2023-04-24T13:13:09;7.68;;;3.40;;
35330;SDS011;21441;52.190;20.910;2023-04-24T13:15:38;4.10;;;3.22;;
35330;SDS011;21441;52.190;20.910;2023-04-24T13:18:05;10.60;;;3.85;;
35330;SDS011;21441;52.190;20.910;2023-04-24T13:20:32;6.03;;;3.38;;
35330;SDS011;21441;52.190;20.910;2023-04-24T13:23:00;8.40;;;4.13;;
35330;SDS011;21441;52.190;20.910;2023-04-24T13:25:28;4.95;;;3.08;;
35330;SDS011;21441;52.190;20.910;2023-04-24T13:28:04;9.48;;;4.03;;
35330;SDS011;21441;52.190;20.910;2023-04-24T13:30:31;7.55;;;3.35;;
35330;SDS011;21441;52.190;20.910;2023-04-24T13:33:00;4.78;;;3.65;;
35330;SDS011;21441;52.190;20.910;2023-04-24T13:35:27;6.57;;;3.40;;
35330;SDS011;21441;52.190;20.910;2023-04-24T13:37:54;6.07;;;3.60;;
35330;SDS011;21441;52.190;20.910;2023-04-24T13:40:21;5.72;;;3.67;;
35330;SDS011;21441;52.190;20.910;2023-04-24T13:42:48;6.40;;;3.92;;
35330;SDS011;21441;52.190;20.910;2023-04-24T13:45:16;7.18;;;4.10;;
35330;SDS011;21441;52.190;20.910;2023-04-24T13:47:43;6.18;;;3.30;;
35330;SDS011;21441;52.190;20.910;2023-04-24T13:50:12;5.10;;;4.03;;
35330;SDS011;21441;52.190;20.910;2023-04-24T13:52:40;6.80;;;4.07;;
35330;SDS011;21441;52.190;20.910;2023-04-24T13:55:07;8.90;;;4.28;;
35330;SDS011;21441;52.190;20.910;2023-04-24T13:57:34;5.00;;;3.72;;
35330;SDS011;21441;52.190;20.910;2023-04-24T14:00:02;5.60;;;3.47;;
35330;SDS011;21441;52.190;20.910;2023-04-24T14:02:32;5.25;;;3.28;;
35330;SDS011;21441;52.190;20.910;2023-04-24T14:04:59;6.57;;;4.13;;
35330;SDS011;21441;52.190;20.910;2023-04-24T14:07:27;7.00;;;4.20;;
35330;SDS011;21441;52.190;20.910;2023-04-24T14:09:55;4.45;;;4.05;;
35330;SDS011;21441;52.190;20.910;2023-04-24T14:12:22;6.65;;;3.92;;
35330;SDS011;21441;52.190;20.910;2023-04-24T14:14:49;7.80;;;4.45;;
35330;SDS011;21441;52.190;20.910;2023-04-24T14:17:16;6.90;;;4.50;;
35330;SDS011;21441;52.190;20.910;2023-04-24T14:19:44;5.47;;;4.38;;
35330;SDS011;21441;52.190;20.910;2023-04-24T14:22:11;7.15;;;4.40;;
35330;SDS011;21441;52.190;20.910;2023-04-24T14:24:39;7.95;;;4.45;;
35330;SDS011;21441;52.190;20.910;2023-04-24T14:27:06;7.07;;;4.28;;
35330;SDS011;21441;52.190;20.910;2023-04-24T14:29:34;4.75;;;4.25;;
35330;SDS011;21441;52.190;20.910;2023-04-24T14:32:01;5.95;;;3.97;;
35330;SDS011;21441;52.190;20.910;2023-04-24T14:34:28;9.25;;;7.85;;